PWSweather.com
Personal Weather Stations
Station Observations
COONRAPIDS
Minneapolis, MN 55433

Minneapolis, MN 55433

Lat: 45.187721, Lon: -93.36828

Elevation: 898

Station Type: Davis Vantage Pro 2

High Low Average
Temperature -2.4°F-19.1°C -27.9°F-33.3°C -17.9°F-27.7°C
Dew Point -13.7°F-25.4°C -34.7°F-37.1°C -26.1°F-32.3°C
Winds 2.3 mph 3.7 kmh Calm Calm Calm SSWCalm SSW
Wind Gusts 4.6 mph7.4 kmh -- 1.0 mph1.6 kmh
Humidity 72% 54% 66%
Pressure 30.45 in1031.2 mb 30.32 in1026.8 mb -
Precipitation 0.00 in0.0 mm - -
Hour Temp Dew Point Humidity Winds Wind Gusts Pressure Precip Precip Rate Daily Precip Total
12:00 AM -22.3°F-30.2°C -29.5°F-34.2°C 68% Calm Calm -- 30.44 in1030.8 mb - 0.00 in0.0 mm 0.00 in0.0 mm
12:10 AM -22.5°F-30.3°C -29.7°F-34.3°C 68% Calm Calm -- 30.44 in1030.8 mb - 0.00 in0.0 mm 0.00 in0.0 mm
12:20 AM -22.6°F-30.3°C -29.8°F-34.3°C 68% Calm Calm -- 30.45 in1031.2 mb - 0.00 in0.0 mm 0.00 in0.0 mm
12:30 AM -22.9°F-30.5°C -30.1°F-34.5°C 68% Calm Calm -- 30.45 in1031.2 mb - 0.00 in0.0 mm 0.00 in0.0 mm
12:40 AM -23.3°F-30.7°C -30.5°F-34.7°C 68% Calm Calm -- 30.45 in1031.2 mb - 0.00 in0.0 mm 0.00 in0.0 mm
12:50 AM -23.2°F-30.7°C -30.2°F-34.6°C 69% Calm Calm -- 30.45 in1031.2 mb - 0.00 in0.0 mm 0.00 in0.0 mm
01:00 AM -23.2°F-30.7°C -30.1°F-34.5°C 69% Calm Calm -- 30.45 in1031.2 mb - 0.00 in0.0 mm 0.00 in0.0 mm
01:10 AM -23.3°F-30.7°C -30.2°F-34.6°C 69% Calm Calm -- 30.45 in1031.2 mb - 0.00 in0.0 mm 0.00 in0.0 mm
01:20 AM -23.7°F-30.9°C -30.6°F-34.8°C 69% Calm Calm -- 30.45 in1031.2 mb - 0.00 in0.0 mm 0.00 in0.0 mm
01:30 AM -24.1°F-31.2°C -31.0°F-35.0°C 69% Calm Calm -- 30.45 in1031.2 mb - 0.00 in0.0 mm 0.00 in0.0 mm
01:40 AM -24.2°F-31.2°C -30.8°F-34.9°C 70% Calm Calm -- 30.45 in1031.2 mb - 0.00 in0.0 mm 0.00 in0.0 mm
01:50 AM -24.4°F-31.3°C -31.0°F-35.0°C 70% Calm Calm -- 30.45 in1031.2 mb - 0.00 in0.0 mm 0.00 in0.0 mm
02:00 AM -24.7°F-31.5°C -31.3°F-35.2°C 70% Calm Calm -- 30.45 in1031.2 mb - 0.00 in0.0 mm 0.00 in0.0 mm
02:10 AM -24.8°F-31.6°C -31.4°F-35.2°C 70% Calm Calm -- 30.45 in1031.2 mb - 0.00 in0.0 mm 0.00 in0.0 mm
02:20 AM -25.1°F-31.7°C -31.7°F-35.4°C 70% Calm Calm -- 30.45 in1031.2 mb - 0.00 in0.0 mm 0.00 in0.0 mm
02:30 AM -25.5°F-31.9°C -32.1°F-35.6°C 70% Calm Calm -- 30.45 in1031.2 mb - 0.00 in0.0 mm 0.00 in0.0 mm
02:40 AM -26.0°F-32.2°C -32.8°F-36.0°C 69% Calm Calm -- 30.45 in1031.2 mb - 0.00 in0.0 mm 0.00 in0.0 mm
02:50 AM -26.2°F-32.3°C -32.7°F-35.9°C 70% Calm Calm -- 30.45 in1031.2 mb - 0.00 in0.0 mm 0.00 in0.0 mm
03:00 AM -26.1°F-32.3°C -32.6°F-35.9°C 70% Calm Calm -- 30.45 in1031.2 mb - 0.00 in0.0 mm 0.00 in0.0 mm
03:10 AM -26.3°F-32.4°C -32.8°F-36.0°C 70% Calm Calm -- 30.45 in1031.2 mb - 0.00 in0.0 mm 0.00 in0.0 mm
03:20 AM -26.4°F-32.4°C -32.9°F-36.1°C 70% Calm Calm -- 30.45 in1031.2 mb - 0.00 in0.0 mm 0.00 in0.0 mm
03:30 AM -26.5°F-32.5°C -33.0°F-36.1°C 70% Calm Calm -- 30.45 in1031.2 mb - 0.00 in0.0 mm 0.00 in0.0 mm
03:40 AM -26.7°F-32.6°C -33.2°F-36.2°C 70% Calm Calm -- 30.45 in1031.2 mb - 0.00 in0.0 mm 0.00 in0.0 mm
03:50 AM -26.7°F-32.6°C -33.3°F-36.3°C 70% Calm Calm -- 30.45 in1031.2 mb - 0.00 in0.0 mm 0.00 in0.0 mm
04:00 AM -26.5°F-32.5°C -33.0°F-36.1°C 70% Calm Calm -- 30.45 in1031.2 mb - 0.00 in0.0 mm 0.00 in0.0 mm
04:10 AM -26.0°F-32.2°C -32.3°F-35.7°C 71% Calm Calm -- 30.45 in1031.2 mb - 0.00 in0.0 mm 0.00 in0.0 mm
04:20 AM -26.0°F-32.2°C -32.6°F-35.9°C 70% Calm Calm -- 30.45 in1031.2 mb - 0.00 in0.0 mm 0.00 in0.0 mm
04:30 AM -26.1°F-32.3°C -32.7°F-35.9°C 70% Calm Calm -- 30.45 in1031.2 mb - 0.00 in0.0 mm 0.00 in0.0 mm
04:40 AM -26.3°F-32.4°C -32.8°F-36.0°C 70% Calm Calm -- 30.45 in1031.2 mb - 0.00 in0.0 mm 0.00 in0.0 mm
04:50 AM -26.5°F-32.5°C -33.0°F-36.1°C 70% Calm Calm -- 30.44 in1030.8 mb - 0.00 in0.0 mm 0.00 in0.0 mm
05:00 AM -26.8°F-32.7°C -33.3°F-36.3°C 70% Calm Calm -- 30.44 in1030.8 mb - 0.00 in0.0 mm 0.00 in0.0 mm
05:10 AM -27.0°F-32.8°C -33.6°F-36.4°C 70% Calm Calm -- 30.44 in1030.8 mb - 0.00 in0.0 mm 0.00 in0.0 mm
05:20 AM -27.3°F-32.9°C -33.8°F-36.6°C 70% Calm Calm -- 30.45 in1031.2 mb - 0.00 in0.0 mm 0.00 in0.0 mm
05:30 AM -27.3°F-32.9°C -33.8°F-36.6°C 70% Calm Calm -- 30.45 in1031.2 mb - 0.00 in0.0 mm 0.00 in0.0 mm
05:40 AM -27.3°F-32.9°C -33.8°F-36.6°C 70% Calm Calm -- 30.45 in1031.2 mb - 0.00 in0.0 mm 0.00 in0.0 mm
05:50 AM -27.4°F-33.0°C -34.2°F-36.8°C 69% Calm Calm -- 30.44 in1030.8 mb - 0.00 in0.0 mm 0.00 in0.0 mm
06:00 AM -27.6°F-33.1°C -34.4°F-36.9°C 69% Calm Calm -- 30.44 in1030.8 mb - 0.00 in0.0 mm 0.00 in0.0 mm
06:10 AM -27.6°F-33.1°C -34.4°F-36.9°C 69% Calm Calm -- 30.44 in1030.8 mb - 0.00 in0.0 mm 0.00 in0.0 mm
06:20 AM -27.6°F-33.1°C -34.4°F-36.9°C 69% Calm Calm -- 30.43 in1030.5 mb - 0.00 in0.0 mm 0.00 in0.0 mm
06:30 AM -27.8°F-33.2°C -34.6°F-37.0°C 69% Calm Calm -- 30.44 in1030.8 mb - 0.00 in0.0 mm 0.00 in0.0 mm
06:40 AM -27.7°F-33.2°C -34.5°F-36.9°C 69% Calm Calm -- 30.43 in1030.5 mb - 0.00 in0.0 mm 0.00 in0.0 mm
06:50 AM -27.6°F-33.1°C -34.4°F-36.9°C 69% Calm Calm -- 30.43 in1030.5 mb - 0.00 in0.0 mm 0.00 in0.0 mm
07:00 AM -27.5°F-33.1°C -34.3°F-36.8°C 69% Calm Calm -- 30.43 in1030.5 mb - 0.00 in0.0 mm 0.00 in0.0 mm
07:10 AM -27.4°F-33.0°C -34.2°F-36.8°C 69% Calm Calm -- 30.43 in1030.5 mb - 0.00 in0.0 mm 0.00 in0.0 mm
07:20 AM -27.4°F-33.0°C -34.2°F-36.8°C 69% Calm Calm -- 30.43 in1030.5 mb - 0.00 in0.0 mm 0.00 in0.0 mm
07:30 AM -27.5°F-33.1°C -34.3°F-36.8°C 69% Calm Calm -- 30.44 in1030.8 mb - 0.00 in0.0 mm 0.00 in0.0 mm
07:40 AM -27.7°F-33.2°C -34.5°F-36.9°C 69% Calm Calm -- 30.44 in1030.8 mb - 0.00 in0.0 mm 0.00 in0.0 mm
07:50 AM -27.8°F-33.2°C -34.5°F-36.9°C 69% Calm Calm -- 30.43 in1030.5 mb - 0.00 in0.0 mm 0.00 in0.0 mm
08:00 AM -27.9°F-33.3°C -34.7°F-37.1°C 69% Calm Calm -- 30.43 in1030.5 mb - 0.00 in0.0 mm 0.00 in0.0 mm
08:10 AM -27.9°F-33.3°C -34.6°F-37.0°C 69% Calm Calm -- 30.44 in1030.8 mb - 0.00 in0.0 mm 0.00 in0.0 mm
08:20 AM -27.9°F-33.3°C -34.6°F-37.0°C 69% Calm Calm -- 30.44 in1030.8 mb - 0.00 in0.0 mm 0.00 in0.0 mm
08:30 AM -27.7°F-33.2°C -34.2°F-36.8°C 70% Calm Calm -- 30.44 in1030.8 mb - 0.00 in0.0 mm 0.00 in0.0 mm
08:40 AM -27.7°F-33.2°C -34.5°F-36.9°C 69% Calm Calm -- 30.45 in1031.2 mb - 0.00 in0.0 mm 0.00 in0.0 mm
08:50 AM -27.6°F-33.1°C -34.4°F-36.9°C 69% Calm Calm -- 30.44 in1030.8 mb - 0.00 in0.0 mm 0.00 in0.0 mm
09:00 AM -27.2°F-32.9°C -33.8°F-36.6°C 70% Calm Calm -- 30.44 in1030.8 mb - 0.00 in0.0 mm 0.00 in0.0 mm
09:10 AM -26.5°F-32.5°C -33.1°F-36.2°C 70% Calm Calm -- 30.44 in1030.8 mb - 0.00 in0.0 mm 0.00 in0.0 mm
09:20 AM -25.6°F-32.0°C -32.2°F-35.7°C 70% Calm Calm -- 30.44 in1030.8 mb - 0.00 in0.0 mm 0.00 in0.0 mm
09:30 AM -23.7°F-30.9°C -29.8°F-34.3°C 72% Calm Calm -- 30.44 in1030.8 mb - 0.00 in0.0 mm 0.00 in0.0 mm
09:40 AM -22.0°F-30.0°C -28.2°F-33.4°C 72% Calm Calm -- 30.44 in1030.8 mb - 0.00 in0.0 mm 0.00 in0.0 mm
09:50 AM -20.7°F-29.3°C -26.9°F-32.7°C 72% Calm Calm -- 30.44 in1030.8 mb - 0.00 in0.0 mm 0.00 in0.0 mm
10:00 AM -20.1°F-28.9°C -26.3°F-32.4°C 72% Calm Calm -- 30.44 in1030.8 mb - 0.00 in0.0 mm 0.00 in0.0 mm
10:10 AM -19.3°F-28.5°C -25.6°F-32.0°C 72% Calm Calm -- 30.45 in1031.2 mb - 0.00 in0.0 mm 0.00 in0.0 mm
10:20 AM -18.7°F-28.2°C -25.2°F-31.8°C 71% Calm Calm -- 30.45 in1031.2 mb - 0.00 in0.0 mm 0.00 in0.0 mm
10:30 AM -17.8°F-27.7°C -24.1°F-31.2°C 72% Calm Calm -- 30.44 in1030.8 mb - 0.00 in0.0 mm 0.00 in0.0 mm
10:40 AM -17.5°F-27.5°C -24.1°F-31.2°C 71% Calm Calm -- 30.44 in1030.8 mb - 0.00 in0.0 mm 0.00 in0.0 mm
10:50 AM -17.2°F-27.3°C -23.8°F-31.0°C 71% Calm Calm -- 30.44 in1030.8 mb - 0.00 in0.0 mm 0.00 in0.0 mm
11:00 AM -16.9°F-27.2°C -23.5°F-30.8°C 71% Calm Calm -- 30.43 in1030.5 mb - 0.00 in0.0 mm 0.00 in0.0 mm
01:30 PM -7.6°F-22.0°C -17.5°F-27.5°C 61% Calm Calm -- 30.41 in1029.8 mb - 0.00 in0.0 mm 0.00 in0.0 mm
01:40 PM -7.5°F-21.9°C -17.7°F-27.6°C 60% Calm Calm 3.5 mph5.6 kmh 30.40 in1029.5 mb - 0.00 in0.0 mm 0.00 in0.0 mm
01:50 PM -7.2°F-21.8°C -17.5°F-27.5°C 60% 1.2 mph ESE1.9 kmh ESE 1.2 mph1.9 kmh 30.40 in1029.5 mb - 0.00 in0.0 mm 0.00 in0.0 mm
02:00 PM -6.8°F-21.6°C -17.1°F-27.3°C 60% Calm Calm -- 30.40 in1029.5 mb - 0.00 in0.0 mm 0.00 in0.0 mm
02:10 PM -6.1°F-21.2°C -16.4°F-26.9°C 60% Calm Calm 2.3 mph3.7 kmh 30.39 in1029.1 mb - 0.00 in0.0 mm 0.00 in0.0 mm
02:20 PM -6.1°F-21.2°C -16.7°F-27.1°C 59% 1.2 mph ESE1.9 kmh ESE 3.5 mph5.6 kmh 30.39 in1029.1 mb - 0.00 in0.0 mm 0.00 in0.0 mm
02:30 PM -5.9°F-21.1°C -16.6°F-27.0°C 59% Calm Calm -- 30.38 in1028.8 mb - 0.00 in0.0 mm 0.00 in0.0 mm
02:40 PM -5.5°F-20.8°C -16.2°F-26.8°C 59% Calm Calm 3.5 mph5.6 kmh 30.38 in1028.8 mb - 0.00 in0.0 mm 0.00 in0.0 mm
02:50 PM -5.2°F-20.7°C -16.2°F-26.8°C 58% Calm Calm 2.3 mph3.7 kmh 30.37 in1028.4 mb - 0.00 in0.0 mm 0.00 in0.0 mm
03:00 PM -4.9°F-20.5°C -16.3°F-26.8°C 57% 1.2 mph ESE1.9 kmh ESE 3.5 mph5.6 kmh 30.37 in1028.4 mb - 0.00 in0.0 mm 0.00 in0.0 mm
03:10 PM -4.8°F-20.4°C -16.5°F-26.9°C 56% Calm Calm -- 30.36 in1028.1 mb - 0.00 in0.0 mm 0.00 in0.0 mm
03:20 PM -4.4°F-20.2°C -16.5°F-26.9°C 55% 1.2 mph ESE1.9 kmh ESE 2.3 mph3.7 kmh 30.35 in1027.8 mb - 0.00 in0.0 mm 0.00 in0.0 mm
03:30 PM -4.1°F-20.1°C -16.2°F-26.8°C 55% 2.3 mph E3.7 kmh E 3.5 mph5.6 kmh 30.35 in1027.8 mb - 0.00 in0.0 mm 0.00 in0.0 mm
03:40 PM -4.1°F-20.1°C -16.6°F-27.0°C 54% Calm Calm 1.2 mph1.9 kmh 30.36 in1028.1 mb - 0.00 in0.0 mm 0.00 in0.0 mm
03:50 PM -3.6°F-19.8°C -16.1°F-26.7°C 54% Calm Calm -- 30.36 in1028.1 mb - 0.00 in0.0 mm 0.00 in0.0 mm
04:00 PM -2.8°F-19.3°C -15.4°F-26.3°C 54% 1.2 mph ESE1.9 kmh ESE 1.2 mph1.9 kmh 30.36 in1028.1 mb - 0.00 in0.0 mm 0.00 in0.0 mm
04:10 PM -2.8°F-19.3°C -15.4°F-26.3°C 54% Calm Calm -- 30.35 in1027.8 mb - 0.00 in0.0 mm 0.00 in0.0 mm
04:20 PM -2.4°F-19.1°C -14.6°F-25.9°C 55% 1.2 mph E1.9 kmh E 2.3 mph3.7 kmh 30.35 in1027.8 mb - 0.00 in0.0 mm 0.00 in0.0 mm
04:30 PM -2.4°F-19.1°C -14.6°F-25.9°C 55% Calm Calm -- 30.35 in1027.8 mb - 0.00 in0.0 mm 0.00 in0.0 mm
04:40 PM -2.5°F-19.2°C -14.7°F-25.9°C 55% Calm Calm -- 30.35 in1027.8 mb - 0.00 in0.0 mm 0.00 in0.0 mm
04:50 PM -2.6°F-19.2°C -14.5°F-25.8°C 56% 1.2 mph E1.9 kmh E 3.5 mph5.6 kmh 30.35 in1027.8 mb - 0.00 in0.0 mm 0.00 in0.0 mm
05:00 PM -2.7°F-19.3°C -14.5°F-25.8°C 56% Calm Calm 3.5 mph5.6 kmh 30.35 in1027.8 mb - 0.00 in0.0 mm 0.00 in0.0 mm
05:10 PM -3.1°F-19.5°C -14.9°F-26.1°C 56% 1.2 mph E1.9 kmh E 2.3 mph3.7 kmh 30.34 in1027.4 mb - 0.00 in0.0 mm 0.00 in0.0 mm
05:20 PM -3.2°F-19.6°C -14.3°F-25.7°C 58% 1.2 mph E1.9 kmh E 4.6 mph7.4 kmh 30.34 in1027.4 mb - 0.00 in0.0 mm 0.00 in0.0 mm
05:30 PM -3.3°F-19.6°C -14.4°F-25.8°C 58% Calm Calm 3.5 mph5.6 kmh 30.32 in1026.8 mb - 0.00 in0.0 mm 0.00 in0.0 mm
05:40 PM -3.2°F-19.6°C -14.0°F-25.6°C 59% Calm Calm 2.3 mph3.7 kmh 30.32 in1026.8 mb - 0.00 in0.0 mm 0.00 in0.0 mm
05:50 PM -3.3°F-19.6°C -13.8°F-25.4°C 60% Calm Calm -- 30.32 in1026.8 mb - 0.00 in0.0 mm 0.00 in0.0 mm
06:00 PM -3.4°F-19.7°C -13.8°F-25.4°C 60% Calm Calm -- 30.34 in1027.4 mb - 0.00 in0.0 mm 0.00 in0.0 mm
06:10 PM -3.6°F-19.8°C -14.4°F-25.8°C 59% 1.2 mph E1.9 kmh E 2.3 mph3.7 kmh 30.33 in1027.1 mb - 0.00 in0.0 mm 0.00 in0.0 mm
06:20 PM -3.7°F-19.8°C -14.1°F-25.6°C 60% Calm Calm -- 30.33 in1027.1 mb - 0.00 in0.0 mm 0.00 in0.0 mm
06:30 PM -3.8°F-19.9°C -13.9°F-25.5°C 61% Calm Calm 1.2 mph1.9 kmh 30.32 in1026.8 mb - 0.00 in0.0 mm 0.00 in0.0 mm
06:40 PM -3.9°F-19.9°C -13.7°F-25.4°C 62% Calm Calm -- 30.33 in1027.1 mb - 0.00 in0.0 mm 0.00 in0.0 mm
06:50 PM -3.9°F-19.9°C -13.7°F-25.4°C 62% Calm Calm 2.3 mph3.7 kmh 30.33 in1027.1 mb - 0.00 in0.0 mm 0.00 in0.0 mm
07:00 PM -3.9°F-19.9°C -13.3°F-25.2°C 63% Calm Calm -- 30.32 in1026.8 mb - 0.00 in0.0 mm 0.00 in0.0 mm
07:10 PM -3.9°F-19.9°C -13.3°F-25.2°C 63% Calm Calm -- 30.32 in1026.8 mb - 0.00 in0.0 mm 0.00 in0.0 mm
07:20 PM -3.9°F-19.9°C -13.3°F-25.2°C 63% Calm Calm -- 30.34 in1027.4 mb - 0.00 in0.0 mm 0.00 in0.0 mm
07:30 PM -3.9°F-19.9°C -13.0°F-25.0°C 64% Calm Calm -- 30.35 in1027.8 mb - 0.00 in0.0 mm 0.00 in0.0 mm
07:40 PM -3.7°F-19.8°C -12.5°F-24.7°C 65% 1.2 mph E1.9 kmh E 2.3 mph3.7 kmh 30.34 in1027.4 mb - 0.00 in0.0 mm 0.00 in0.0 mm
07:50 PM -3.8°F-19.9°C -12.6°F-24.8°C 65% Calm Calm 2.3 mph3.7 kmh 30.33 in1027.1 mb - 0.00 in0.0 mm 0.00 in0.0 mm
08:00 PM -3.8°F-19.9°C -12.3°F-24.6°C 66% Calm Calm -- 30.33 in1027.1 mb - 0.00 in0.0 mm 0.00 in0.0 mm
08:10 PM -3.8°F-19.9°C -12.0°F-24.4°C 67% Calm Calm 2.3 mph3.7 kmh 30.33 in1027.1 mb - 0.00 in0.0 mm 0.00 in0.0 mm
08:20 PM -3.8°F-19.9°C -11.7°F-24.3°C 68% Calm Calm 2.3 mph3.7 kmh 30.34 in1027.4 mb - 0.00 in0.0 mm 0.00 in0.0 mm
08:30 PM -3.7°F-19.8°C -11.6°F-24.2°C 68% 1.2 mph ESE1.9 kmh ESE 3.5 mph5.6 kmh 30.35 in1027.8 mb - 0.00 in0.0 mm 0.00 in0.0 mm
08:40 PM -3.6°F-19.8°C -11.2°F-24.0°C 69% Calm Calm -- 30.35 in1027.8 mb - 0.00 in0.0 mm 0.00 in0.0 mm
08:50 PM -3.5°F-19.7°C -11.1°F-23.9°C 69% Calm Calm 1.2 mph1.9 kmh 30.34 in1027.4 mb - 0.00 in0.0 mm 0.00 in0.0 mm
09:00 PM -3.6°F-19.8°C -11.2°F-24.0°C 69% Calm Calm -- 30.34 in1027.4 mb - 0.00 in0.0 mm 0.00 in0.0 mm
09:10 PM -3.6°F-19.8°C -10.9°F-23.8°C 70% Calm Calm 2.3 mph3.7 kmh 30.33 in1027.1 mb - 0.00 in0.0 mm 0.00 in0.0 mm
09:20 PM -3.6°F-19.8°C -10.7°F-23.7°C 71% Calm Calm 1.2 mph1.9 kmh 30.34 in1027.4 mb - 0.00 in0.0 mm 0.00 in0.0 mm
09:30 PM -3.6°F-19.8°C -10.7°F-23.7°C 71% Calm Calm -- 30.33 in1027.1 mb - 0.00 in0.0 mm 0.00 in0.0 mm
09:40 PM -3.6°F-19.8°C -10.6°F-23.7°C 71% Calm Calm 1.2 mph1.9 kmh 30.34 in1027.4 mb - 0.00 in0.0 mm 0.00 in0.0 mm
09:50 PM -3.4°F-19.7°C -10.5°F-23.6°C 71% Calm Calm 2.3 mph3.7 kmh 30.34 in1027.4 mb - 0.00 in0.0 mm 0.00 in0.0 mm
10:00 PM -3.3°F-19.6°C -10.4°F-23.6°C 71% 1.2 mph ESE1.9 kmh ESE 3.5 mph5.6 kmh 30.34 in1027.4 mb - 0.00 in0.0 mm 0.00 in0.0 mm
10:10 PM -3.3°F-19.6°C -10.4°F-23.6°C 71% Calm Calm -- 30.33 in1027.1 mb - 0.00 in0.0 mm 0.00 in0.0 mm
10:20 PM -3.4°F-19.7°C -10.5°F-23.6°C 71% Calm Calm -- 30.33 in1027.1 mb - 0.00 in0.0 mm 0.00 in0.0 mm
10:30 PM -3.5°F-19.7°C -10.6°F-23.7°C 71% 1.2 mph ESE1.9 kmh ESE 1.2 mph1.9 kmh 30.33 in1027.1 mb - 0.00 in0.0 mm 0.00 in0.0 mm
10:40 PM -3.5°F-19.7°C -10.6°F-23.7°C 71% Calm Calm -- 30.33 in1027.1 mb - 0.00 in0.0 mm 0.00 in0.0 mm
10:50 PM -3.6°F-19.8°C -10.6°F-23.7°C 71% Calm Calm 3.5 mph5.6 kmh 30.33 in1027.1 mb - 0.00 in0.0 mm 0.00 in0.0 mm
11:00 PM -3.7°F-19.8°C -10.7°F-23.7°C 71% Calm Calm -- 30.33 in1027.1 mb - 0.00 in0.0 mm 0.00 in0.0 mm
11:10 PM -3.8°F-19.9°C -10.8°F-23.8°C 71% Calm Calm -- 30.32 in1026.8 mb - 0.00 in0.0 mm 0.00 in0.0 mm
11:20 PM -4.0°F-20.0°C -10.7°F-23.7°C 72% Calm Calm 2.3 mph3.7 kmh 30.32 in1026.8 mb - 0.00 in0.0 mm 0.00 in0.0 mm
11:30 PM -4.1°F-20.1°C -10.9°F-23.8°C 72% Calm Calm -- 30.32 in1026.8 mb - 0.00 in0.0 mm 0.00 in0.0 mm
11:40 PM -4.3°F-20.2°C -11.0°F-23.9°C 72% Calm Calm -- 30.32 in1026.8 mb - 0.00 in0.0 mm 0.00 in0.0 mm
11:50 PM -4.4°F-20.2°C -10.9°F-23.8°C 73% Calm Calm -- 30.32 in1026.8 mb - 0.00 in0.0 mm 0.00 in0.0 mm